Time;durP1;ratioP1;P1;durP2;ratioP2;P2;SDS_P1;SDS_P2;PMS_P1;PMS_P2;Temp;Humidity;BMP_temperature;BMP_pressure;BME280_temperature;BME280_humidity;BME280_pressure;Samples;Min_cycle;Max_cycle;Signal;HPM_P1;HPM_P2
2021/05/20 00:01:51;;;;;;;4.00;2.63;;;14.30;43.40;;;;;;5137969;27;20433;-89
2021/05/20 00:04:18;;;;;;;3.00;2.53;;;14.10;44.00;;;;;;5137918;28;20432;-89
2021/05/20 00:06:44;;;;;;;3.97;2.50;;;14.10;44.00;;;;;;5138567;27;20426;-89
2021/05/20 00:09:11;;;;;;;3.63;2.73;;;14.40;44.70;;;;;;5138517;27;20429;-89
2021/05/20 00:11:37;;;;;;;3.70;2.57;;;14.40;43.50;;;;;;5126181;28;20437;-90
2021/05/20 00:14:04;;;;;;;4.00;2.50;;;14.10;43.80;;;;;;5130389;28;20951;-89
2021/05/20 00:16:30;;;;;;;4.60;2.43;;;13.90;45.00;;;;;;5123907;28;20501;-90
2021/05/20 00:18:58;;;;;;;3.13;2.70;;;13.80;45.10;;;;;;5117854;28;20517;-90
2021/05/20 00:21:24;;;;;;;2.60;2.47;;;14.20;43.70;;;;;;5118427;28;20922;-90
2021/05/20 00:23:50;;;;;;;4.63;2.40;;;14.30;43.10;;;;;;5118683;28;20892;-91
2021/05/20 00:26:17;;;;;;;4.03;2.50;;;14.10;43.20;;;;;;5118841;28;20465;-90
2021/05/20 00:28:43;;;;;;;3.13;2.70;;;14.80;43.60;;;;;;5119964;28;20453;-90
2021/05/20 00:31:10;;;;;;;4.47;2.90;;;14.60;43.00;;;;;;5118470;28;20453;-90
2021/05/20 00:33:36;;;;;;;4.40;2.90;;;14.60;43.00;;;;;;5135294;22;20521;-82
2021/05/20 00:36:05;;;;;;;3.10;2.70;;;14.30;43.50;;;;;;5100756;28;20503;-82
2021/05/20 00:38:31;;;;;;;13.13;2.60;;;14.10;44.00;;;;;;5100192;28;20485;-81
2021/05/20 00:40:59;;;;;;;4.40;2.80;;;14.10;43.60;;;;;;5100015;28;20917;-82
2021/05/20 00:43:25;;;;;;;5.07;2.60;;;14.00;45.10;;;;;;5099033;28;20485;-82
2021/05/20 00:45:52;;;;;;;4.43;2.80;;;14.10;45.60;;;;;;5100587;28;20446;-82
2021/05/20 00:48:19;;;;;;;5.53;2.67;;;14.10;44.10;;;;;;5103067;28;20501;-82
2021/05/20 00:50:45;;;;;;;2.50;2.30;;;14.10;43.90;;;;;;5104679;28;20474;-82
2021/05/20 00:53:13;;;;;;;10.23;3.13;;;14.10;43.50;;;;;;5103927;28;20468;-81
2021/05/20 00:55:40;;;;;;;5.90;3.80;;;14.30;42.80;;;;;;5103530;28;20483;-82
2021/05/20 00:58:08;;;;;;;2.57;2.30;;;14.50;42.80;;;;;;5102379;28;20569;-81
2021/05/20 01:00:35;;;;;;;5.40;2.60;;;14.60;44.10;;;;;;5105027;28;20526;-82
2021/05/20 01:03:01;;;;;;;6.87;2.60;;;14.70;43.10;;;;;;5107356;28;20442;-82
2021/05/20 01:05:28;;;;;;;5.83;2.57;;;14.80;43.60;;;;;;5108309;28;20454;-82
2021/05/20 01:07:54;;;;;;;2.70;2.40;;;14.70;42.70;;;;;;5103327;28;20526;-82
2021/05/20 01:10:22;;;;;;;4.90;2.87;;;14.60;43.30;;;;;;5102802;28;20481;-82
2021/05/20 01:12:49;;;;;;;3.57;2.50;;;14.60;43.40;;;;;;5102201;28;20442;-82
2021/05/20 01:15:22;;;;;;;3.20;2.47;;;14.40;42.40;;;;;;5102641;28;20457;-82
2021/05/20 01:17:51;;;;;;;2.90;2.53;;;14.20;44.00;;;;;;5102889;28;20462;-81
2021/05/20 01:20:20;;;;;;;5.03;2.53;;;13.90;43.40;;;;;;5102447;28;20504;-82
2021/05/20 01:22:46;;;;;;;6.27;2.90;;;13.50;45.30;;;;;;5118159;28;20426;-82
2021/05/20 01:25:14;;;;;;;2.70;2.50;;;13.60;45.60;;;;;;5109473;28;20458;-82
2021/05/20 01:27:43;;;;;;;5.63;2.60;;;13.70;45.90;;;;;;5105066;28;20442;-81
2021/05/20 01:30:10;;;;;;;2.77;2.60;;;13.60;44.30;;;;;;5104125;28;20478;-81
2021/05/20 01:32:37;;;;;;;3.30;2.70;;;13.30;45.00;;;;;;5103922;28;20453;-82
2021/05/20 01:35:05;;;;;;;2.67;2.50;;;13.40;45.90;;;;;;5103735;28;20508;-81
2021/05/20 01:37:32;;;;;;;5.07;2.40;;;13.30;45.60;;;;;;5103911;28;20505;-81
2021/05/20 01:39:59;;;;;;;6.33;2.43;;;13.20;46.00;;;;;;5103689;28;20445;-81
2021/05/20 01:42:25;;;;;;;3.67;2.60;;;13.40;46.30;;;;;;5103322;28;20446;-81
2021/05/20 01:44:53;;;;;;;3.70;2.40;;;13.50;45.00;;;;;;5104389;28;20467;-81
2021/05/20 01:47:20;;;;;;;4.80;2.70;;;13.50;46.50;;;;;;5103837;28;20461;-81
2021/05/20 01:49:51;;;;;;;2.77;2.30;;;13.20;45.50;;;;;;5103813;28;20457;-81
2021/05/20 01:52:18;;;;;;;3.93;2.60;;;13.40;47.60;;;;;;5102479;28;20447;-81
2021/05/20 01:54:45;;;;;;;2.70;2.50;;;13.80;45.70;;;;;;5102986;28;20474;-81
2021/05/20 01:57:12;;;;;;;3.33;2.50;;;13.60;44.50;;;;;;5101853;28;20620;-81
2021/05/20 01:59:38;;;;;;;2.67;2.40;;;13.20;45.50;;;;;;5102833;28;20471;-81
2021/05/20 02:02:05;;;;;;;3.73;2.57;;;13.40;45.70;;;;;;5103463;28;20815;-80
2021/05/20 02:04:31;;;;;;;6.77;2.50;;;13.40;45.90;;;;;;5101814;28;20466;-81
2021/05/20 02:06:57;;;;;;;2.47;2.27;;;13.20;46.00;;;;;;5102593;28;20439;-82
2021/05/20 02:09:24;;;;;;;3.40;2.70;;;13.10;46.30;;;;;;5102044;28;20478;-81
2021/05/20 02:11:51;;;;;;;3.00;2.40;;;13.20;46.70;;;;;;5102523;28;20861;-82
2021/05/20 02:14:18;;;;;;;3.90;2.83;;;13.70;45.90;;;;;;5106880;28;20536;-82
2021/05/20 02:16:44;;;;;;;6.83;2.67;;;14.00;44.20;;;;;;5107377;28;20474;-81
2021/05/20 02:19:11;;;;;;;4.10;2.50;;;14.00;44.70;;;;;;5107046;28;20454;-82
2021/05/20 02:21:37;;;;;;;4.40;2.57;;;14.40;43.90;;;;;;5103871;28;20442;-82
2021/05/20 02:24:05;;;;;;;4.80;2.77;;;14.70;44.20;;;;;;5101869;28;20511;-82
2021/05/20 02:26:32;;;;;;;2.97;2.50;;;14.80;43.30;;;;;;5101806;28;20495;-82
2021/05/20 02:28:59;;;;;;;4.47;2.57;;;14.90;43.00;;;;;;5102164;28;20490;-82
2021/05/20 02:31:26;;;;;;;3.30;2.57;;;14.90;43.70;;;;;;5101936;28;20450;-82
2021/05/20 02:33:52;;;;;;;4.67;2.60;;;15.20;44.00;;;;;;5102056;28;20474;-82
2021/05/20 02:36:19;;;;;;;4.27;2.43;;;15.30;42.60;;;;;;5108665;28;20477;-82
2021/05/20 02:38:45;;;;;;;4.77;2.93;;;15.30;42.10;;;;;;5110159;28;20449;-82
2021/05/20 02:41:12;;;;;;;4.27;3.50;;;15.40;42.70;;;;;;5111619;28;20446;-82
2021/05/20 02:43:38;;;;;;;3.40;2.80;;;15.40;42.10;;;;;;5111347;28;20474;-82
2021/05/20 02:46:05;;;;;;;4.73;3.60;;;15.40;42.70;;;;;;5110328;28;20443;-82
2021/05/20 02:48:32;;;;;;;5.33;2.77;;;15.30;43.50;;;;;;5104377;28;20816;-82
2021/05/20 02:50:58;;;;;;;2.70;2.30;;;15.50;43.40;;;;;;5104760;28;20513;-82
2021/05/20 02:53:25;;;;;;;3.00;2.77;;;15.60;43.00;;;;;;5110569;28;20463;-82
2021/05/20 02:55:51;;;;;;;3.27;2.60;;;15.50;41.90;;;;;;5111527;28;20438;-82
2021/05/20 02:58:19;;;;;;;3.03;2.60;;;15.40;42.00;;;;;;5111389;28;20503;-82
2021/05/20 03:00:47;;;;;;;3.80;2.43;;;15.30;41.80;;;;;;5105633;28;20514;-82
2021/05/20 03:03:15;;;;;;;3.17;2.70;;;15.30;42.80;;;;;;5103507;28;20466;-83
2021/05/20 03:05:41;;;;;;;3.90;2.50;;;15.30;41.20;;;;;;5104301;28;20442;-82
2021/05/20 03:08:10;;;;;;;6.43;2.40;;;15.10;42.70;;;;;;5104592;28;20500;-82
2021/05/20 03:10:36;;;;;;;3.60;2.30;;;14.60;42.30;;;;;;5102986;28;20541;-82
2021/05/20 03:13:03;;;;;;;4.07;2.77;;;14.50;42.70;;;;;;5104134;28;20442;-82
2021/05/20 03:15:29;;;;;;;3.47;2.40;;;14.70;43.30;;;;;;5101536;28;20900;-82
2021/05/20 03:17:56;;;;;;;4.53;2.70;;;14.90;43.20;;;;;;5101571;28;20605;-83
2021/05/20 03:20:23;;;;;;;3.17;2.50;;;15.00;41.90;;;;;;5101694;28;20446;-82
2021/05/20 03:22:50;;;;;;;2.60;2.40;;;15.00;42.80;;;;;;5101708;28;20447;-82
2021/05/20 03:25:18;;;;;;;2.80;2.43;;;14.60;42.70;;;;;;5102440;28;20979;-82
2021/05/20 03:27:44;;;;;;;3.40;2.77;;;14.10;43.80;;;;;;5102338;28;20439;-81
2021/05/20 03:30:12;;;;;;;2.60;2.40;;;13.70;44.40;;;;;;5102750;28;20485;-82
2021/05/20 03:32:39;;;;;;;7.20;2.63;;;13.80;44.30;;;;;;5101815;28;20556;-82
2021/05/20 03:35:06;;;;;;;9.73;3.00;;;14.10;45.10;;;;;;5101608;28;20824;-82
2021/05/20 03:37:34;;;;;;;3.70;2.43;;;14.10;44.10;;;;;;5101020;28;20477;-82
2021/05/20 03:40:01;;;;;;;3.70;3.00;;;14.20;44.30;;;;;;5100674;28;20466;-80
2021/05/20 03:42:27;;;;;;;2.80;2.43;;;14.30;44.60;;;;;;5099638;28;20457;-81
2021/05/20 03:44:54;;;;;;;4.90;2.90;;;14.40;45.20;;;;;;5100877;28;20987;-81
2021/05/20 03:47:21;;;;;;;3.60;2.60;;;14.60;43.70;;;;;;5099078;28;20446;-82
2021/05/20 03:49:47;;;;;;;3.77;2.30;;;14.60;44.60;;;;;;5095397;28;20438;-82
2021/05/20 03:52:13;;;;;;;2.20;2.07;;;14.60;45.90;;;;;;5094889;28;20967;-83
2021/05/20 03:54:42;;;;;;;5.10;2.70;;;15.00;45.80;;;;;;5095011;28;20458;-83
2021/05/20 03:57:09;;;;;;;2.70;2.20;;;15.10;45.00;;;;;;5095188;28;20545;-84
2021/05/20 03:59:35;;;;;;;3.80;2.60;;;14.80;45.20;;;;;;5094949;28;20489;-83
2021/05/20 04:02:02;;;;;;;3.77;2.43;;;14.40;45.90;;;;;;5096040;28;20561;-82
2021/05/20 04:04:28;;;;;;;3.20;2.40;;;14.10;47.00;;;;;;5094790;28;20472;-82
2021/05/20 04:06:55;;;;;;;4.83;2.50;;;14.00;46.70;;;;;;5095400;28;20434;-82
2021/05/20 04:09:21;;;;;;;5.20;2.57;;;14.10;46.90;;;;;;5114301;28;20437;-83
2021/05/20 04:11:48;;;;;;;2.53;2.33;;;14.10;46.90;;;;;;5114560;28;20442;-83
2021/05/20 04:14:15;;;;;;;2.73;2.53;;;14.00;47.50;;;;;;5101919;28;20557;-82
2021/05/20 04:16:41;;;;;;;4.43;2.53;;;14.30;46.80;;;;;;5099114;28;20447;-82
2021/05/20 04:19:07;;;;;;;5.93;2.90;;;14.30;46.60;;;;;;5102554;28;20493;-82
2021/05/20 04:21:34;;;;;;;5.40;2.50;;;14.20;46.60;;;;;;5100133;28;20481;-83
2021/05/20 04:24:00;;;;;;;3.03;2.37;;;14.10;47.60;;;;;;5101427;28;20470;-83
2021/05/20 04:26:27;;;;;;;3.87;3.00;;;14.10;47.90;;;;;;5100659;28;20481;-83
2021/05/20 04:28:55;;;;;;;4.33;2.83;;;13.80;48.10;;;;;;5100500;28;20466;-83
2021/05/20 04:31:22;;;;;;;2.43;2.23;;;13.80;48.00;;;;;;5099141;28;20794;-83
2021/05/20 04:33:48;;;;;;;3.57;2.60;;;13.90;48.10;;;;;;5099900;28;21001;-83
2021/05/20 04:36:14;;;;;;;3.80;2.90;;;13.90;48.40;;;;;;5100064;28;20533;-83
2021/05/20 04:38:41;;;;;;;5.70;2.93;;;13.90;47.60;;;;;;5099759;28;20474;-83
2021/05/20 04:41:08;;;;;;;5.83;2.60;;;14.00;48.40;;;;;;5100573;28;20434;-82
2021/05/20 04:43:34;;;;;;;3.70;2.60;;;14.00;48.10;;;;;;5099616;28;20982;-83
2021/05/20 04:46:02;;;;;;;3.30;2.47;;;13.70;48.60;;;;;;5100446;28;20439;-83
2021/05/20 04:48:28;;;;;;;3.37;2.30;;;14.10;49.30;;;;;;5110053;28;20457;-83
2021/05/20 04:50:56;;;;;;;4.30;2.97;;;14.30;47.70;;;;;;5117246;28;20457;-82
2021/05/20 04:53:23;;;;;;;3.03;2.70;;;14.30;48.10;;;;;;5117960;28;20469;-83
2021/05/20 04:55:51;;;;;;;2.60;2.37;;;14.00;48.50;;;;;;5108714;28;20430;-83
2021/05/20 04:58:17;;;;;;;2.97;2.60;;;13.90;50.00;;;;;;5108789;28;20470;-83
2021/05/20 05:00:43;;;;;;;2.60;2.43;;;14.40;47.90;;;;;;5118209;28;20434;-83
2021/05/20 05:03:11;;;;;;;8.20;2.63;;;14.20;48.50;;;;;;5116447;28;20872;-83
2021/05/20 05:05:37;;;;;;;3.40;2.87;;;14.20;47.90;;;;;;5114756;28;20542;-82
2021/05/20 05:08:04;;;;;;;4.03;2.10;;;13.90;48.30;;;;;;5108943;28;20434;-83
2021/05/20 05:10:30;;;;;;;2.90;2.37;;;14.20;48.80;;;;;;5102679;28;20847;-83
2021/05/20 05:12:57;;;;;;;2.37;2.17;;;14.30;49.20;;;;;;5098996;28;20446;-83
2021/05/20 05:15:23;;;;;;;3.30;2.27;;;14.00;47.60;;;;;;5098532;28;20454;-83
2021/05/20 05:17:49;;;;;;;4.07;2.20;;;14.10;48.30;;;;;;5099101;28;20446;-83
2021/05/20 05:20:18;;;;;;;3.00;2.20;;;14.30;48.00;;;;;;5098957;28;20530;-83
2021/05/20 05:22:45;;;;;;;3.40;2.67;;;14.30;47.50;;;;;;5097938;28;20499;-83
2021/05/20 05:25:11;;;;;;;2.50;2.30;;;14.10;48.40;;;;;;5098484;28;20466;-83
2021/05/20 05:27:38;;;;;;;3.90;2.10;;;14.30;48.60;;;;;;5099514;28;20474;-83
2021/05/20 05:30:06;;;;;;;3.70;2.40;;;14.60;47.00;;;;;;5099381;28;20450;-83
2021/05/20 05:32:32;;;;;;;2.70;2.30;;;14.80;46.90;;;;;;5099342;28;20450;-83
2021/05/20 05:34:59;;;;;;;5.30;2.40;;;14.70;46.80;;;;;;5101555;28;20564;-83
2021/05/20 05:37:26;;;;;;;2.40;2.20;;;14.70;45.90;;;;;;5101273;28;20994;-83
2021/05/20 05:39:53;;;;;;;2.57;2.37;;;14.70;45.10;;;;;;5102476;28;20438;-82
2021/05/20 05:42:19;;;;;;;2.37;2.13;;;14.80;46.40;;;;;;5101179;28;20848;-83
2021/05/20 05:44:46;;;;;;;3.90;2.30;;;14.40;45.70;;;;;;5101055;28;20528;-83
2021/05/20 05:47:12;;;;;;;3.50;2.30;;;14.60;47.60;;;;;;5101658;28;20860;-83
2021/05/20 05:49:41;;;;;;;3.30;2.07;;;15.30;46.40;;;;;;5100163;28;20528;-83
2021/05/20 05:52:09;;;;;;;2.37;2.13;;;15.00;44.70;;;;;;5100426;28;20456;-83
2021/05/20 05:54:36;;;;;;;2.50;2.30;;;14.50;46.10;;;;;;5101754;28;20472;-83
2021/05/20 05:57:03;;;;;;;2.93;2.40;;;14.90;46.70;;;;;;5102111;28;20481;-83
2021/05/20 05:59:30;;;;;;;2.30;2.10;;;15.50;44.70;;;;;;5100764;28;20479;-83
2021/05/20 06:01:59;;;;;;;2.47;2.27;;;14.70;44.90;;;;;;5100304;28;20457;-83
2021/05/20 06:04:25;;;;;;;3.10;2.20;;;15.00;45.60;;;;;;5099984;28;20470;-83
2021/05/20 06:06:52;;;;;;;2.50;2.30;;;15.00;44.40;;;;;;5100772;28;20461;-83
2021/05/20 06:09:18;;;;;;;2.77;2.13;;;15.20;44.30;;;;;;5098888;28;20537;-83
2021/05/20 06:11:45;;;;;;;2.30;2.10;;;15.50;44.70;;;;;;5099441;28;20442;-82
2021/05/20 06:14:12;;;;;;;3.60;2.20;;;15.60;45.00;;;;;;5099999;28;20465;-83
2021/05/20 06:16:40;;;;;;;5.93;2.63;;;15.80;43.50;;;;;;5098720;28;20478;-83
2021/05/20 06:19:08;;;;;;;4.80;2.60;;;16.10;43.10;;;;;;5098328;28;20525;-83
2021/05/20 06:21:34;;;;;;;3.23;2.40;;;16.00;43.30;;;;;;5099054;28;20872;-83
2021/05/20 06:24:01;;;;;;;2.77;2.40;;;15.60;43.80;;;;;;5099399;28;20552;-83
2021/05/20 06:26:29;;;;;;;2.20;2.00;;;15.70;44.80;;;;;;5100046;28;20446;-83
2021/05/20 06:28:56;;;;;;;3.73;2.40;;;15.90;44.50;;;;;;5099745;28;20460;-83
2021/05/20 06:31:23;;;;;;;2.63;2.43;;;16.50;43.50;;;;;;5100573;28;20617;-83
2021/05/20 06:33:50;;;;;;;2.10;2.00;;;16.90;41.70;;;;;;5099199;28;21013;-82
2021/05/20 06:36:17;;;;;;;5.63;2.00;;;17.00;41.80;;;;;;5099947;28;20431;-82
2021/05/20 06:38:43;;;;;;;6.03;2.30;;;17.20;42.00;;;;;;5099031;28;21002;-83
2021/05/20 06:41:10;;;;;;;2.00;1.90;;;17.00;41.60;;;;;;5099512;28;20443;-83
2021/05/20 06:43:37;;;;;;;2.50;2.13;;;16.80;41.60;;;;;;5100083;28;20465;-82
2021/05/20 06:46:05;;;;;;;2.00;1.90;;;16.90;42.30;;;;;;5098173;28;20538;-83
2021/05/20 06:48:31;;;;;;;1.90;1.80;;;17.20;41.80;;;;;;5098191;28;20860;-83
2021/05/20 06:50:58;;;;;;;1.90;1.70;;;17.50;41.10;;;;;;5095628;28;20457;-83
2021/05/20 06:53:25;;;;;;;1.90;1.80;;;17.90;40.40;;;;;;5096722;28;20502;-83
2021/05/20 06:55:56;;;;;;;2.17;1.80;;;18.20;40.00;;;;;;5096021;28;20455;-83
2021/05/20 07:01:07;;;;;;;1.77;1.73;;;18.20;39.80;;;;;;5096448;28;20506;-83
2021/05/20 07:03:34;;;;;;;1.70;1.60;;;18.60;38.60;;;;;;5097919;28;20477;-82
2021/05/20 07:06:00;;;;;;;1.80;1.60;;;18.60;38.40;;;;;;5100354;28;20841;-83
2021/05/20 07:08:27;;;;;;;2.50;1.83;;;18.40;38.00;;;;;;5098406;28;20927;-83
2021/05/20 07:10:54;;;;;;;2.20;1.93;;;18.00;38.50;;;;;;5100518;28;20446;-83
2021/05/20 07:13:21;;;;;;;3.83;2.17;;;17.20;39.70;;;;;;5095537;28;20502;-84
2021/05/20 07:15:47;;;;;;;1.70;1.70;;;17.50;39.60;;;;;;5096261;28;20453;-83
2021/05/20 07:18:15;;;;;;;10.33;2.50;;;17.60;39.50;;;;;;5095193;28;20478;-82
2021/05/20 07:20:42;;;;;;;2.80;2.40;;;17.20;40.30;;;;;;5094964;28;20503;-82
2021/05/20 07:23:09;;;;;;;4.07;1.70;;;17.60;39.90;;;;;;5095055;28;20533;-83
2021/05/20 07:25:36;;;;;;;4.37;2.20;;;17.10;40.00;;;;;;5096820;28;20974;-83
2021/05/20 07:28:03;;;;;;;1.83;1.77;;;16.70;41.40;;;;;;5099972;28;20494;-83
2021/05/20 07:30:29;;;;;;;3.33;2.70;;;16.80;41.30;;;;;;5099243;28;20911;-81
2021/05/20 07:32:55;;;;;;;1.93;1.87;;;17.10;41.70;;;;;;5099789;28;20450;-82
2021/05/20 07:35:23;;;;;;;4.13;2.00;;;17.40;39.50;;;;;;5098309;28;20445;-82
2021/05/20 07:37:50;;;;;;;2.07;1.97;;;17.40;40.40;;;;;;5098366;28;20528;-82
2021/05/20 07:40:18;;;;;;;6.80;2.00;;;17.90;39.60;;;;;;5100580;28;20445;-83
2021/05/20 07:42:44;;;;;;;4.97;2.80;;;18.30;38.40;;;;;;5099269;28;20446;-83
2021/05/20 07:45:12;;;;;;;2.93;2.33;;;18.30;38.10;;;;;;5097858;28;20462;-82
2021/05/20 07:47:38;;;;;;;2.17;2.03;;;18.70;39.60;;;;;;5097014;28;20943;-83
2021/05/20 07:50:06;;;;;;;2.30;2.20;;;20.20;36.60;;;;;;5096158;28;20446;-83
2021/05/20 07:52:34;;;;;;;3.10;1.83;;;21.40;34.20;;;;;;5095240;28;20431;-83
2021/05/20 07:55:01;;;;;;;1.70;1.70;;;22.40;31.20;;;;;;5093928;28;20502;-84
2021/05/20 07:57:28;;;;;;;2.67;2.03;;;22.60;32.10;;;;;;5093443;28;20838;-84
2021/05/20 07:59:54;;;;;;;2.53;1.63;;;23.00;30.40;;;;;;5095157;28;20478;-84
2021/05/20 08:02:31;;;;;;;2.30;1.80;;;22.10;30.30;;;;;;5096058;28;20495;-83
2021/05/20 08:05:01;;;;;;;4.93;1.80;;;21.10;31.80;;;;;;5096039;28;20478;-83
2021/05/20 08:07:33;;;;;;;2.47;1.90;;;20.70;32.70;;;;;;5095693;28;20429;-83
2021/05/20 08:10:29;;;;;;;4.60;3.20;;;21.40;33.30;;;;;;5096299;28;20431;-83
2021/05/20 08:12:56;;;;;;;2.63;1.97;;;22.30;30.80;;;;;;5096565;28;20542;-83
2021/05/20 08:15:22;;;;;;;4.30;2.30;;;22.80;32.10;;;;;;5095296;28;20447;-83
2021/05/20 08:17:49;;;;;;;5.70;1.70;;;23.70;29.00;;;;;;5095014;28;20904;-84
2021/05/20 08:20:15;;;;;;;1.70;1.70;;;23.00;28.60;;;;;;5106776;28;20516;-83
2021/05/20 08:22:42;;;;;;;4.37;1.70;;;22.60;29.00;;;;;;5114236;28;20445;-83
2021/05/20 08:25:10;;;;;;;2.60;1.83;;;21.70;31.30;;;;;;5109683;28;20462;-82
2021/05/20 08:27:36;;;;;;;7.90;2.17;;;21.30;30.90;;;;;;5100043;28;20493;-82
2021/05/20 08:30:05;;;;;;;1.80;1.70;;;20.40;31.40;;;;;;5099763;28;20605;-82
2021/05/20 08:32:31;;;;;;;1.80;1.70;;;19.60;33.60;;;;;;5099767;28;20630;-82
2021/05/20 08:34:57;;;;;;;2.23;1.80;;;19.20;34.80;;;;;;5100038;28;20490;-82
2021/05/20 08:37:24;;;;;;;1.90;1.70;;;19.00;34.90;;;;;;5099190;28;20559;-82
2021/05/20 08:39:50;;;;;;;1.70;1.60;;;18.90;35.00;;;;;;5099698;28;20522;-82
2021/05/20 08:42:17;;;;;;;3.60;1.80;;;18.80;34.90;;;;;;5099550;28;20454;-81
2021/05/20 08:44:44;;;;;;;4.57;2.00;;;19.10;35.20;;;;;;5097993;28;20452;-82
2021/05/20 08:47:11;;;;;;;3.20;2.07;;;19.10;35.50;;;;;;5097047;28;20446;-83
2021/05/20 08:49:37;;;;;;;2.63;1.70;;;18.80;34.30;;;;;;5096664;28;20943;-82
2021/05/20 08:52:04;;;;;;;1.97;1.70;;;18.70;36.00;;;;;;5096947;28;20472;-83
2021/05/20 08:54:32;;;;;;;6.43;2.03;;;19.20;35.30;;;;;;5098200;28;20517;-84
2021/05/20 08:56:59;;;;;;;3.80;1.77;;;18.50;35.90;;;;;;5099294;28;20439;-82
2021/05/20 08:59:26;;;;;;;2.17;1.60;;;19.00;35.60;;;;;;5097490;28;20430;-83
2021/05/20 09:01:54;;;;;;;1.67;1.63;;;19.60;34.20;;;;;;5094971;28;20468;-83
2021/05/20 09:04:25;;;;;;;2.20;1.70;;;20.00;33.60;;;;;;5097656;28;20481;-82
2021/05/20 09:06:53;;;;;;;2.20;1.77;;;20.00;33.70;;;;;;5097723;28;20419;-83
2021/05/20 09:09:22;;;;;;;2.67;1.60;;;19.60;33.80;;;;;;5101187;28;20449;-83
2021/05/20 09:11:50;;;;;;;1.70;1.60;;;20.00;33.10;;;;;;5101417;28;20442;-83
2021/05/20 09:14:30;;;;;;;3.77;1.53;;;20.20;33.00;;;;;;5099934;28;20446;-83
2021/05/20 09:17:10;;;;;;;1.67;1.63;;;19.80;31.30;;;;;;5099182;28;20434;-83
2021/05/20 09:19:38;;;;;;;1.73;1.60;;;19.70;32.60;;;;;;5098535;28;20989;-84
2021/05/20 09:22:06;;;;;;;3.23;2.03;;;19.20;32.40;;;;;;5099515;28;20481;-84
2021/05/20 09:24:46;;;;;;;1.80;1.80;;;19.40;32.60;;;;;;5101289;28;20470;-84
2021/05/20 09:27:26;;;;;;;1.97;1.80;;;19.60;33.10;;;;;;5100225;28;20499;-84
2021/05/20 09:30:13;;;;;;;1.77;1.67;;;19.80;33.90;;;;;;5102097;28;20442;-83
2021/05/20 09:32:41;;;;;;;1.93;1.53;;;20.20;33.50;;;;;;5101213;28;20559;-83
2021/05/20 09:35:08;;;;;;;2.13;1.70;;;20.00;34.70;;;;;;5104004;28;20574;-83
2021/05/20 09:37:46;;;;;;;3.37;1.70;;;19.80;33.20;;;;;;5102441;28;20479;-84
2021/05/20 09:40:13;;;;;;;1.90;1.70;;;19.40;35.80;;;;;;5105180;28;20457;-83
2021/05/20 09:42:40;;;;;;;1.53;1.50;;;20.00;33.00;;;;;;5105761;28;20488;-83
2021/05/20 09:45:09;;;;;;;2.07;1.50;;;20.80;31.10;;;;;;5104814;28;21014;-83
2021/05/20 09:47:36;;;;;;;1.70;1.60;;;20.90;30.80;;;;;;5103831;28;20461;-84
2021/05/20 09:50:05;;;;;;;3.97;2.13;;;20.80;30.50;;;;;;5103723;28;20454;-83
2021/05/20 09:52:32;;;;;;;8.03;4.00;;;20.90;30.10;;;;;;5109268;28;20451;-83
2021/05/20 09:54:59;;;;;;;2.27;1.87;;;21.30;30.10;;;;;;5110160;28;20478;-83
2021/05/20 09:57:27;;;;;;;1.97;1.67;;;21.70;30.10;;;;;;5109386;28;20837;-83
2021/05/20 10:00:10;;;;;;;2.27;1.60;;;21.50;29.90;;;;;;5105532;28;20441;-83
2021/05/20 10:02:38;;;;;;;1.67;1.63;;;21.30;31.00;;;;;;5107340;28;20461;-84
2021/05/20 10:05:27;;;;;;;1.90;1.70;;;20.90;31.20;;;;;;5106173;28;20474;-84
2021/05/20 10:07:54;;;;;;;2.60;2.07;;;20.50;30.20;;;;;;5105055;28;20431;-83
2021/05/20 10:10:21;;;;;;;8.83;2.57;;;20.30;31.80;;;;;;5106913;28;20443;-83
2021/05/20 10:12:48;;;;;;;5.23;2.10;;;20.00;32.20;;;;;;5114196;28;20477;-84
2021/05/20 10:15:17;;;;;;;2.60;1.70;;;19.90;34.00;;;;;;5117381;28;20466;-83
2021/05/20 10:17:44;;;;;;;1.70;1.60;;;19.90;33.10;;;;;;5114388;28;20469;-83
2021/05/20 10:20:13;;;;;;;7.87;1.87;;;20.00;33.10;;;;;;5104522;28;20450;-83
2021/05/20 10:22:40;;;;;;;8.13;1.80;;;20.40;32.90;;;;;;5113300;28;20437;-83
2021/05/20 10:25:08;;;;;;;4.70;1.60;;;20.90;32.40;;;;;;5116594;28;20493;-82
2021/05/20 10:27:36;;;;;;;2.70;1.60;;;21.50;31.70;;;;;;5116780;28;20439;-82
2021/05/20 10:30:06;;;;;;;2.77;1.90;;;21.80;31.40;;;;;;5117585;28;20447;-82
2021/05/20 10:32:34;;;;;;;4.50;1.63;;;21.00;30.70;;;;;;5104383;28;20857;-82
2021/05/20 10:35:04;;;;;;;2.27;1.60;;;20.30;31.50;;;;;;5100828;28;20500;-82
2021/05/20 10:37:38;;;;;;;2.17;1.70;;;20.60;31.20;;;;;;5101811;28;20469;-81
2021/05/20 10:40:09;;;;;;;1.67;1.67;;;21.00;30.10;;;;;;5100907;28;20430;-82
2021/05/20 10:42:40;;;;;;;1.80;1.70;;;20.80;30.50;;;;;;5100768;28;20522;-82
2021/05/20 10:45:24;;;;;;;1.63;1.53;;;20.80;30.40;;;;;;5098629;28;20485;-82
2021/05/20 10:48:23;;;;;;;2.40;1.73;;;20.00;31.20;;;;;;5097354;28;20466;-82
2021/05/20 10:51:18;;;;;;;2.53;1.63;;;19.90;31.00;;;;;;5098895;28;20450;-82
2021/05/20 10:53:50;;;;;;;1.93;1.60;;;20.40;30.40;;;;;;5097024;28;20466;-82
2021/05/20 10:56:57;;;;;;;2.63;1.50;;;20.30;31.50;;;;;;5099522;28;20429;-82
2021/05/20 10:59:51;;;;;;;2.03;1.40;;;20.40;31.80;;;;;;5100288;28;20466;-82
2021/05/20 11:02:54;;;;;;;8.30;1.70;;;20.40;34.30;;;;;;5098925;28;20435;-83
2021/05/20 11:05:57;;;;;;;1.60;1.60;;;20.70;33.60;;;;;;5099571;28;20485;-83
2021/05/20 11:08:57;;;;;;;1.70;1.50;;;20.50;31.30;;;;;;5077410;28;20461;-83
2021/05/20 11:11:48;;;;;;;1.63;1.60;;;20.70;30.00;;;;;;5098975;28;20946;-83
2021/05/20 11:14:40;;;;;;;2.23;1.70;;;20.90;30.00;;;;;;5099258;28;20544;-83
2021/05/20 11:17:42;;;;;;;2.63;1.70;;;21.00;30.00;;;;;;5099462;28;20809;-82
2021/05/20 11:20:51;;;;;;;3.10;1.90;;;21.10;30.80;;;;;;5098164;28;20481;-82
2021/05/20 11:23:21;;;;;;;4.90;2.83;;;21.40;29.80;;;;;;5097190;28;20462;-82
2021/05/20 11:25:59;;;;;;;2.33;1.70;;;21.40;30.40;;;;;;5096683;28;20493;-83
2021/05/20 11:28:26;;;;;;;2.03;1.90;;;21.30;29.90;;;;;;5095319;28;20961;-83
2021/05/20 11:30:57;;;;;;;2.47;2.07;;;21.10;30.00;;;;;;5095637;28;20779;-83
2021/05/20 11:33:24;;;;;;;3.60;1.80;;;21.00;30.00;;;;;;5096749;28;20501;-83
2021/05/20 11:36:09;;;;;;;2.50;1.90;;;21.10;29.90;;;;;;5097757;28;20431;-83
2021/05/20 11:38:36;;;;;;;2.00;1.90;;;20.90;29.00;;;;;;5096849;28;20466;-83
2021/05/20 11:41:16;;;;;;;1.57;1.47;;;21.00;29.00;;;;;;5097795;28;20437;-82
2021/05/20 11:43:43;;;;;;;1.93;1.60;;;21.30;29.10;;;;;;5097894;28;20975;-82
2021/05/20 11:46:23;;;;;;;4.80;1.70;;;21.10;29.20;;;;;;5097748;28;20537;-83
2021/05/20 11:49:00;;;;;;;1.80;1.63;;;21.40;29.10;;;;;;5095928;28;20811;-83
2021/05/20 11:51:44;;;;;;;2.47;1.77;;;20.90;28.90;;;;;;5097369;28;20447;-82
2021/05/20 11:54:14;;;;;;;2.20;1.67;;;21.30;27.80;;;;;;5096224;28;20501;-82
2021/05/20 11:56:43;;;;;;;8.27;1.80;;;21.40;28.00;;;;;;5098187;28;20537;-82
2021/05/20 11:59:10;;;;;;;1.70;1.60;;;21.90;27.80;;;;;;5098259;28;20497;-82
2021/05/20 12:01:37;;;;;;;3.00;1.90;;;22.20;27.40;;;;;;5098141;28;20453;-83
2021/05/20 12:04:06;;;;;;;4.70;1.70;;;22.20;27.30;;;;;;5095438;28;20470;-83
2021/05/20 12:06:33;;;;;;;2.00;1.67;;;22.30;27.30;;;;;;5094161;28;20963;-83
2021/05/20 12:09:12;;;;;;;1.80;1.63;;;22.40;27.20;;;;;;5094456;28;20461;-84
2021/05/20 12:11:39;;;;;;;1.70;1.60;;;22.50;26.70;;;;;;5094713;28;20812;-83
2021/05/20 12:14:27;;;;;;;1.70;1.60;;;21.90;28.10;;;;;;5094636;28;21006;-83
2021/05/20 12:17:06;;;;;;;7.83;1.80;;;22.30;27.50;;;;;;5094400;28;20423;-83
2021/05/20 12:19:34;;;;;;;2.43;1.90;;;22.60;27.70;;;;;;5094306;28;20975;-83
2021/05/20 12:22:06;;;;;;;5.10;1.67;;;22.60;27.20;;;;;;5094529;28;20449;-83
2021/05/20 12:24:36;;;;;;;3.27;2.10;;;22.50;27.30;;;;;;5095231;28;20508;-83
2021/05/20 12:27:10;;;;;;;1.50;1.50;;;22.20;27.20;;;;;;5096870;28;20438;-83
2021/05/20 12:29:39;;;;;;;1.90;1.80;;;22.80;27.00;;;;;;5112791;28;20456;-83
2021/05/20 12:32:06;;;;;;;1.70;1.60;;;22.80;27.10;;;;;;5112031;28;20510;-83
2021/05/20 12:34:32;;;;;;;3.30;1.73;;;22.60;26.80;;;;;;5101594;28;20515;-83
2021/05/20 12:37:06;;;;;;;3.13;1.80;;;22.20;27.40;;;;;;5097619;28;20978;-85
2021/05/20 12:39:33;;;;;;;1.60;1.50;;;22.00;27.10;;;;;;5094362;28;20473;-83
2021/05/20 12:42:00;;;;;;;3.60;1.80;;;21.40;27.50;;;;;;5095422;28;21038;-84
2021/05/20 12:44:26;;;;;;;3.30;1.80;;;21.40;27.90;;;;;;5097738;28;20454;-84
2021/05/20 12:46:53;;;;;;;1.80;1.70;;;21.60;28.80;;;;;;5098501;28;20478;-83
2021/05/20 12:49:22;;;;;;;3.30;1.97;;;21.60;28.70;;;;;;5098684;28;20509;-84
2021/05/20 12:51:59;;;;;;;1.70;1.60;;;21.70;28.60;;;;;;5098705;28;20532;-82
2021/05/20 12:54:27;;;;;;;3.17;1.63;;;21.80;27.80;;;;;;5102280;28;20497;-80
2021/05/20 12:57:04;;;;;;;2.80;1.70;;;21.70;27.40;;;;;;5102688;28;20430;-80
2021/05/20 12:59:39;;;;;;;1.60;1.50;;;21.70;27.40;;;;;;5103481;28;20476;-80